Time;durP1;ratioP1;P1;durP2;ratioP2;P2;SDS_P1;SDS_P2;PMS_P1;PMS_P2;Temp;Humidity;BMP_temperature;BMP_pressure;BME280_temperature;BME280_humidity;BME280_pressure;Samples;Min_cycle;Max_cycle;Signal;HPM_P1;HPM_P2
2023/03/12 00:00:20;;;;;;;17.23;9.47;;;10.90;92.00;;;;;;4933780;29;20203;-80
2023/03/12 00:02:47;;;;;;;20.53;10.80;;;10.80;92.20;;;;;;4910546;29;20223;-80
2023/03/12 00:05:14;;;;;;;19.73;9.60;;;10.80;92.40;;;;;;4925430;29;20214;-80
2023/03/12 00:07:41;;;;;;;20.63;11.00;;;10.80;92.60;;;;;;4928702;29;20220;-80
2023/03/12 00:10:09;;;;;;;22.83;10.57;;;10.80;92.50;;;;;;4926874;29;20631;-80
2023/03/12 00:12:36;;;;;;;19.90;10.73;;;10.80;92.50;;;;;;4917283;29;20536;-80
2023/03/12 00:15:08;;;;;;;22.47;11.17;;;10.80;92.90;;;;;;4929307;29;20540;-80
2023/03/12 00:17:35;;;;;;;23.47;12.10;;;10.80;92.70;;;;;;4932675;29;20260;-80
2023/03/12 00:20:05;;;;;;;22.80;11.87;;;10.80;92.70;;;;;;4919517;29;20540;-80
2023/03/12 00:22:34;;;;;;;21.93;11.67;;;10.80;92.70;;;;;;4924726;29;20271;-80
2023/03/12 00:25:01;;;;;;;16.07;10.60;;;10.70;92.60;;;;;;4918843;29;20563;-80
2023/03/12 00:27:28;;;;;;;19.13;10.37;;;10.70;92.60;;;;;;4916949;29;20606;-79
2023/03/12 00:29:55;;;;;;;23.67;11.87;;;10.70;92.90;;;;;;4919477;29;20210;-80
2023/03/12 00:32:22;;;;;;;16.20;11.57;;;10.70;92.90;;;;;;4916733;29;20218;-80
2023/03/12 00:34:51;;;;;;;23.87;12.13;;;10.60;93.10;;;;;;4918531;29;20210;-80
2023/03/12 00:37:19;;;;;;;24.93;12.37;;;10.60;93.30;;;;;;4920222;29;20602;-81
2023/03/12 00:39:46;;;;;;;21.50;12.00;;;10.50;93.50;;;;;;4919813;29;20302;-80
2023/03/12 00:42:13;;;;;;;27.63;11.50;;;10.50;93.70;;;;;;4932535;29;20552;-82
2023/03/12 00:44:43;;;;;;;24.57;12.50;;;10.50;93.80;;;;;;4930465;29;20261;-81
2023/03/12 00:47:11;;;;;;;21.63;11.87;;;10.50;93.80;;;;;;4918998;29;20223;-80
2023/03/12 00:49:38;;;;;;;21.97;12.93;;;10.40;93.90;;;;;;4911268;29;20202;-80
2023/03/12 00:52:05;;;;;;;25.43;13.90;;;10.40;94.00;;;;;;4933781;29;20739;-80
2023/03/12 00:54:33;;;;;;;20.47;11.13;;;10.40;94.00;;;;;;4923206;29;20262;-80
2023/03/12 00:57:00;;;;;;;23.53;13.53;;;10.30;93.90;;;;;;4930535;29;20253;-80
2023/03/12 00:59:27;;;;;;;22.10;12.67;;;10.30;93.80;;;;;;4923342;29;20210;-81
2023/03/12 01:01:54;;;;;;;22.27;13.57;;;10.30;93.80;;;;;;4921689;29;20210;-80
2023/03/12 01:04:22;;;;;;;19.33;12.87;;;10.30;93.70;;;;;;4921086;29;20209;-80
2023/03/12 01:06:49;;;;;;;21.00;11.77;;;10.20;93.70;;;;;;4916222;29;20221;-80
2023/03/12 01:09:16;;;;;;;20.07;13.03;;;10.20;93.60;;;;;;4906664;29;20211;-80
2023/03/12 01:11:43;;;;;;;24.13;13.07;;;10.20;93.60;;;;;;4927734;29;20222;-80
2023/03/12 01:14:12;;;;;;;23.50;12.63;;;10.10;93.50;;;;;;4908629;29;20272;-80
2023/03/12 01:16:39;;;;;;;22.77;13.10;;;10.10;93.50;;;;;;4912996;29;20274;-80
2023/03/12 01:19:06;;;;;;;19.33;12.00;;;10.00;93.60;;;;;;4923236;29;20203;-80
2023/03/12 01:21:34;;;;;;;19.53;12.27;;;10.00;93.60;;;;;;4919534;29;20205;-80
2023/03/12 01:24:02;;;;;;;20.53;11.53;;;10.00;93.90;;;;;;4928205;29;20214;-80
2023/03/12 01:26:29;;;;;;;18.30;11.70;;;10.00;93.50;;;;;;4918820;29;20600;-80
2023/03/12 01:28:56;;;;;;;18.90;11.10;;;10.10;93.50;;;;;;4938475;29;20212;-80
2023/03/12 01:31:23;;;;;;;15.17;9.77;;;10.10;93.50;;;;;;4932687;29;20603;-80
2023/03/12 01:33:52;;;;;;;20.03;10.63;;;10.00;93.40;;;;;;4935694;29;20202;-80
2023/03/12 01:36:22;;;;;;;16.93;9.90;;;10.00;93.30;;;;;;4928882;29;20214;-81
2023/03/12 01:38:51;;;;;;;17.03;9.93;;;10.00;93.30;;;;;;4942439;29;20287;-80
2023/03/12 01:41:18;;;;;;;16.77;10.73;;;10.00;93.30;;;;;;4933945;29;20212;-80
2023/03/12 01:43:46;;;;;;;16.07;9.27;;;10.00;93.10;;;;;;4948268;29;20221;-81
2023/03/12 01:46:25;;;;;;;17.93;9.13;;;10.00;93.10;;;;;;4924998;29;20302;-81
2023/03/12 01:49:00;;;;;;;13.30;9.60;;;10.00;93.10;;;;;;4937940;29;20600;-80
2023/03/12 01:51:39;;;;;;;16.07;10.17;;;10.00;93.00;;;;;;4934760;29;20296;-81
2023/03/12 01:54:30;;;;;;;13.10;8.20;;;10.00;93.00;;;;;;4931111;29;20218;-81
2023/03/12 01:56:59;;;;;;;17.23;8.53;;;10.00;92.90;;;;;;4922835;29;20620;-80
2023/03/12 01:59:31;;;;;;;19.27;10.37;;;10.00;92.80;;;;;;4935551;29;20198;-80
2023/03/12 02:01:58;;;;;;;13.47;8.70;;;10.00;92.80;;;;;;4932165;29;20217;-80
2023/03/12 02:04:27;;;;;;;17.70;8.30;;;10.00;92.70;;;;;;4939147;29;20210;-80
2023/03/12 02:07:03;;;;;;;20.07;8.23;;;10.00;92.60;;;;;;4921203;29;20278;-80
2023/03/12 02:09:38;;;;;;;16.00;9.07;;;9.90;92.30;;;;;;4937114;29;20210;-81
2023/03/12 02:12:10;;;;;;;17.43;8.60;;;9.90;92.10;;;;;;4932695;29;20200;-80
2023/03/12 02:14:37;;;;;;;19.77;8.70;;;9.90;92.00;;;;;;4940670;29;20270;-80
2023/03/12 02:17:05;;;;;;;15.90;7.67;;;9.80;91.90;;;;;;4924159;29;20301;-80
2023/03/12 02:19:33;;;;;;;14.30;8.33;;;9.70;91.90;;;;;;4937544;29;20201;-80
2023/03/12 02:22:02;;;;;;;17.37;8.83;;;9.70;92.10;;;;;;4930968;29;20242;-81
2023/03/12 02:24:43;;;;;;;17.43;9.20;;;9.70;92.00;;;;;;4934395;28;20218;-80
2023/03/12 02:27:11;;;;;;;17.27;8.33;;;9.70;92.00;;;;;;4932857;29;20214;-80
2023/03/12 02:29:41;;;;;;;14.90;8.93;;;9.60;92.00;;;;;;4919936;29;20278;-80
2023/03/12 02:32:23;;;;;;;16.93;9.67;;;9.60;92.20;;;;;;4916105;29;20270;-80
2023/03/12 02:34:50;;;;;;;15.47;8.50;;;9.50;92.30;;;;;;4915668;29;20225;-80
2023/03/12 02:37:18;;;;;;;22.13;10.00;;;9.40;92.40;;;;;;4936055;29;20241;-81
2023/03/12 02:39:52;;;;;;;15.07;8.80;;;9.40;92.60;;;;;;4926641;29;20217;-80
2023/03/12 02:42:21;;;;;;;16.27;8.63;;;9.40;92.70;;;;;;4936755;29;20212;-80
2023/03/12 02:44:48;;;;;;;12.93;8.40;;;9.40;92.70;;;;;;4939313;29;20206;-80
2023/03/12 02:47:16;;;;;;;13.50;8.93;;;9.40;92.80;;;;;;4934552;29;20553;-80
2023/03/12 02:49:45;;;;;;;19.37;9.20;;;9.30;92.80;;;;;;4932755;29;20216;-80
2023/03/12 02:52:12;;;;;;;15.17;8.13;;;9.40;92.80;;;;;;4934216;29;20314;-80
2023/03/12 02:54:41;;;;;;;14.50;8.60;;;9.40;92.70;;;;;;4914656;29;20206;-81
2023/03/12 02:57:08;;;;;;;14.03;7.93;;;9.40;92.70;;;;;;4942005;29;20239;-81
2023/03/12 02:59:37;;;;;;;17.83;8.67;;;9.40;92.60;;;;;;4919502;29;20212;-81
2023/03/12 03:02:08;;;;;;;15.37;8.30;;;9.40;92.70;;;;;;4935168;29;20654;-80
2023/03/12 03:04:36;;;;;;;15.80;8.80;;;9.40;92.40;;;;;;4917460;29;20209;-80
2023/03/12 03:07:03;;;;;;;13.33;8.43;;;9.30;92.30;;;;;;4939135;29;20202;-81
2023/03/12 03:09:31;;;;;;;14.77;8.27;;;9.30;92.40;;;;;;4919472;29;20203;-80
2023/03/12 03:11:58;;;;;;;13.17;7.93;;;9.20;92.30;;;;;;4935660;29;20200;-81
2023/03/12 03:14:28;;;;;;;15.43;9.03;;;9.20;92.00;;;;;;4933902;29;20519;-81
2023/03/12 03:16:55;;;;;;;13.37;7.63;;;9.10;92.10;;;;;;4931278;29;20215;-80
2023/03/12 03:19:23;;;;;;;9.40;7.60;;;9.10;92.20;;;;;;4935252;29;20211;-80
2023/03/12 03:21:50;;;;;;;12.93;7.23;;;9.00;92.40;;;;;;4936076;29;20199;-80
2023/03/12 03:24:18;;;;;;;10.20;7.27;;;8.90;92.50;;;;;;4918756;29;20206;-80
2023/03/12 03:26:45;;;;;;;13.40;7.93;;;8.90;92.50;;;;;;4935140;29;20240;-81
2023/03/12 03:29:12;;;;;;;15.20;8.03;;;8.90;92.50;;;;;;4932418;29;20229;-81
2023/03/12 03:31:40;;;;;;;11.77;7.53;;;9.00;92.50;;;;;;4918208;29;20218;-81
2023/03/12 03:34:08;;;;;;;12.07;7.50;;;8.90;92.30;;;;;;4926414;29;20217;-81
2023/03/12 03:36:35;;;;;;;11.67;7.30;;;8.90;92.30;;;;;;4916166;29;20291;-81
2023/03/12 03:39:10;;;;;;;9.87;6.77;;;8.90;92.30;;;;;;4930493;29;20221;-81
2023/03/12 03:41:37;;;;;;;10.20;6.30;;;8.90;92.40;;;;;;4911806;29;20218;-82
2023/03/12 03:44:06;;;;;;;9.73;6.60;;;8.90;92.40;;;;;;4918375;29;20261;-81
2023/03/12 03:46:36;;;;;;;14.03;6.60;;;8.90;92.40;;;;;;4927608;29;20273;-81
2023/03/12 03:49:06;;;;;;;12.93;6.13;;;8.90;92.30;;;;;;4930529;29;20279;-81
2023/03/12 03:51:35;;;;;;;11.07;7.37;;;8.90;92.40;;;;;;4921690;29;20218;-82
2023/03/12 03:54:07;;;;;;;9.47;5.70;;;8.90;92.60;;;;;;4928044;29;20206;-81
2023/03/12 03:56:34;;;;;;;10.50;6.07;;;8.90;92.20;;;;;;4924621;29;20212;-81
2023/03/12 03:59:03;;;;;;;7.27;5.90;;;8.90;92.10;;;;;;4928083;29;20846;-81
2023/03/12 04:01:33;;;;;;;15.87;6.90;;;8.80;92.10;;;;;;4931901;29;20220;-81
2023/03/12 04:04:01;;;;;;;6.37;5.37;;;8.80;92.20;;;;;;4920049;29;20620;-82
2023/03/12 04:06:30;;;;;;;9.27;5.47;;;8.80;92.20;;;;;;4936591;29;20233;-81
2023/03/12 04:08:58;;;;;;;8.17;5.40;;;8.90;92.20;;;;;;4925828;29;20229;-81
2023/03/12 04:11:27;;;;;;;7.77;5.00;;;8.80;92.20;;;;;;4928358;29;20305;-81
2023/03/12 04:13:56;;;;;;;9.87;5.60;;;8.90;92.20;;;;;;4931597;29;20265;-81
2023/03/12 04:16:27;;;;;;;8.43;5.20;;;8.80;92.10;;;;;;4932003;29;20637;-82
2023/03/12 04:18:54;;;;;;;9.83;5.30;;;8.80;92.10;;;;;;4928287;29;20230;-81
2023/03/12 04:21:23;;;;;;;9.20;4.93;;;8.80;92.10;;;;;;4915803;29;20238;-81
2023/03/12 04:23:51;;;;;;;9.67;5.57;;;8.80;92.00;;;;;;4915163;29;20229;-82
2023/03/12 04:26:22;;;;;;;7.13;5.30;;;8.70;92.00;;;;;;4934667;29;20304;-81
2023/03/12 04:28:50;;;;;;;7.60;4.73;;;8.70;92.10;;;;;;4926414;29;20212;-81
2023/03/12 04:31:17;;;;;;;9.90;5.03;;;8.70;92.10;;;;;;4929464;29;20216;-81
2023/03/12 04:33:49;;;;;;;9.13;4.80;;;8.70;91.90;;;;;;4926382;29;20233;-81
2023/03/12 04:36:18;;;;;;;11.33;4.53;;;8.60;91.80;;;;;;4921506;29;20718;-80
2023/03/12 04:38:48;;;;;;;6.60;4.67;;;8.60;91.90;;;;;;4910337;29;20219;-81
2023/03/12 04:41:20;;;;;;;8.83;5.07;;;8.60;92.00;;;;;;4930584;29;20215;-81
2023/03/12 04:43:55;;;;;;;6.67;5.30;;;8.60;92.00;;;;;;4925190;29;20216;-81
2023/03/12 04:46:23;;;;;;;8.00;5.00;;;8.60;92.00;;;;;;4940504;29;20204;-80
2023/03/12 04:48:50;;;;;;;10.77;5.03;;;8.60;92.00;;;;;;4943448;29;20215;-81
2023/03/12 04:51:17;;;;;;;6.20;4.40;;;8.60;92.10;;;;;;4941100;29;20217;-81
2023/03/12 04:53:44;;;;;;;6.17;3.97;;;8.60;92.20;;;;;;4923242;29;20340;-82
2023/03/12 04:56:12;;;;;;;14.20;5.00;;;8.60;92.30;;;;;;4927521;29;20298;-81
2023/03/12 04:58:41;;;;;;;12.23;5.10;;;8.70;92.30;;;;;;4901961;29;20613;-81
2023/03/12 05:01:20;;;;;;;6.60;4.10;;;8.70;92.30;;;;;;4933648;29;20197;-82
2023/03/12 05:03:48;;;;;;;7.13;4.13;;;8.70;92.20;;;;;;4931496;29;20660;-81
2023/03/12 05:06:16;;;;;;;5.23;3.97;;;8.80;92.20;;;;;;4931891;29;20214;-81
2023/03/12 05:08:46;;;;;;;5.93;3.60;;;8.80;92.10;;;;;;4921651;29;20255;-81
2023/03/12 05:11:14;;;;;;;6.60;4.50;;;8.90;92.20;;;;;;4936504;29;20293;-81
2023/03/12 05:13:42;;;;;;;8.17;4.07;;;8.90;92.10;;;;;;4935472;29;20209;-81
2023/03/12 05:16:10;;;;;;;7.30;4.03;;;9.00;92.10;;;;;;4916463;29;20232;-81
2023/03/12 05:18:37;;;;;;;9.73;3.97;;;9.10;92.00;;;;;;4933428;29;20216;-81
2023/03/12 05:21:16;;;;;;;9.77;3.93;;;9.10;91.90;;;;;;4942604;29;20228;-81
2023/03/12 05:23:44;;;;;;;5.60;3.60;;;9.20;92.00;;;;;;4930799;29;20210;-81
2023/03/12 05:26:26;;;;;;;5.67;3.83;;;9.20;91.90;;;;;;4930831;29;20261;-81
2023/03/12 05:29:01;;;;;;;5.90;3.30;;;9.30;91.80;;;;;;4910528;29;20210;-81
2023/03/12 05:31:31;;;;;;;5.80;3.57;;;9.40;91.70;;;;;;4911643;29;20229;-81
2023/03/12 05:34:01;;;;;;;7.23;4.03;;;9.40;91.60;;;;;;4912884;29;20276;-80
2023/03/12 05:36:28;;;;;;;6.43;3.90;;;9.40;91.50;;;;;;4913508;29;20220;-80
2023/03/12 05:38:56;;;;;;;4.40;3.47;;;9.50;91.60;;;;;;4932954;29;20624;-81
2023/03/12 05:41:27;;;;;;;7.43;3.60;;;9.50;91.60;;;;;;4942563;29;20312;-80
2023/03/12 05:43:59;;;;;;;8.50;4.17;;;9.60;91.50;;;;;;4936525;29;20525;-81
2023/03/12 05:46:28;;;;;;;4.20;3.53;;;9.60;91.50;;;;;;4938902;29;20211;-82
2023/03/12 05:48:57;;;;;;;8.87;3.30;;;9.60;91.40;;;;;;4919853;29;20214;-81
2023/03/12 05:51:25;;;;;;;5.67;3.37;;;9.60;91.50;;;;;;4939586;29;20602;-80
2023/03/12 05:53:52;;;;;;;7.70;3.33;;;9.60;91.60;;;;;;4923616;29;20510;-81
2023/03/12 05:56:19;;;;;;;5.10;3.67;;;9.60;91.70;;;;;;4934942;29;20218;-82
2023/03/12 05:58:48;;;;;;;5.50;3.40;;;9.60;91.80;;;;;;4924497;29;20219;-80
2023/03/12 06:01:25;;;;;;;7.83;3.37;;;9.70;92.00;;;;;;4932933;29;20211;-81
2023/03/12 06:03:54;;;;;;;4.93;3.30;;;9.70;92.20;;;;;;4930967;29;20207;-80
2023/03/12 06:06:23;;;;;;;11.43;3.23;;;9.70;92.30;;;;;;4925117;29;20218;-81
2023/03/12 06:08:51;;;;;;;6.17;3.73;;;9.80;92.50;;;;;;4929975;29;20214;-81
2023/03/12 06:11:18;;;;;;;4.90;3.17;;;9.80;92.50;;;;;;4912317;29;20285;-81
2023/03/12 06:13:46;;;;;;;12.97;3.40;;;9.90;92.60;;;;;;4921476;29;20674;-80
2023/03/12 06:16:22;;;;;;;8.17;2.83;;;9.90;92.60;;;;;;4931399;29;20618;-81
2023/03/12 06:18:56;;;;;;;12.13;3.23;;;10.00;92.60;;;;;;4917460;29;20236;-81
2023/03/12 06:21:30;;;;;;;5.83;3.53;;;10.00;92.60;;;;;;4916366;29;20290;-80
2023/03/12 06:23:59;;;;;;;4.07;3.07;;;10.10;92.60;;;;;;4914441;29;20237;-80
2023/03/12 06:26:36;;;;;;;10.53;3.17;;;10.10;92.60;;;;;;4929364;29;20682;-80
2023/03/12 06:29:03;;;;;;;7.93;2.90;;;10.20;92.60;;;;;;4921699;29;20203;-82
2023/03/12 06:31:30;;;;;;;5.93;3.00;;;10.30;92.70;;;;;;4923226;29;20634;-80
2023/03/12 06:33:59;;;;;;;5.30;2.57;;;10.30;92.50;;;;;;4916096;29;20204;-81
2023/03/12 06:36:26;;;;;;;5.97;2.97;;;10.40;92.40;;;;;;4920723;29;20215;-81
2023/03/12 06:38:53;;;;;;;7.30;2.67;;;10.40;92.40;;;;;;4926282;29;20254;-80
2023/03/12 06:41:23;;;;;;;7.73;3.23;;;10.50;92.30;;;;;;4920808;29;20525;-81
2023/03/12 06:43:50;;;;;;;12.07;2.90;;;10.50;92.30;;;;;;4934010;29;20202;-82
2023/03/12 06:46:24;;;;;;;4.63;2.60;;;10.60;92.20;;;;;;4918900;29;20568;-83
2023/03/12 06:48:51;;;;;;;7.70;2.30;;;10.60;92.00;;;;;;4930942;29;20223;-81
2023/03/12 06:51:18;;;;;;;9.70;2.87;;;10.60;91.90;;;;;;4917823;29;20269;-81
2023/03/12 06:53:46;;;;;;;10.20;3.23;;;10.70;91.80;;;;;;4934435;29;20622;-81
2023/03/12 06:56:14;;;;;;;8.90;2.53;;;10.70;91.80;;;;;;4933002;29;20242;-81
2023/03/12 06:58:41;;;;;;;6.57;2.40;;;10.80;91.60;;;;;;4934916;29;20241;-82
2023/03/12 07:01:08;;;;;;;4.90;2.10;;;10.80;91.40;;;;;;4928903;29;20247;-82
2023/03/12 07:03:36;;;;;;;5.17;2.50;;;10.80;91.20;;;;;;4936845;29;20213;-81
2023/03/12 07:06:03;;;;;;;9.70;2.80;;;10.90;90.90;;;;;;4935143;29;20261;-80
2023/03/12 07:08:31;;;;;;;6.20;2.20;;;10.90;90.60;;;;;;4913821;29;20265;-82
2023/03/12 07:11:02;;;;;;;10.93;2.47;;;10.90;90.40;;;;;;4929214;29;20249;-81
2023/03/12 07:13:29;;;;;;;7.53;2.47;;;11.00;90.60;;;;;;4928573;29;20215;-81
2023/03/12 07:15:56;;;;;;;6.93;2.00;;;11.00;90.60;;;;;;4914375;29;20273;-81
2023/03/12 07:18:26;;;;;;;6.47;2.07;;;11.10;90.60;;;;;;4928374;29;20230;-81
2023/03/12 07:20:53;;;;;;;11.63;2.10;;;11.10;90.50;;;;;;4934668;29;20245;-81
2023/03/12 07:23:21;;;;;;;13.63;2.00;;;11.20;90.40;;;;;;4931232;29;20616;-80
2023/03/12 07:25:49;;;;;;;9.03;2.70;;;11.30;90.40;;;;;;4924517;29;20309;-86
2023/03/12 07:28:19;;;;;;;6.03;2.27;;;11.30;90.30;;;;;;4917410;29;20216;-82
2023/03/12 07:30:51;;;;;;;9.73;2.30;;;11.50;90.10;;;;;;4909234;29;20214;-80
2023/03/12 07:33:20;;;;;;;9.37;1.97;;;11.50;89.70;;;;;;4933657;29;20236;-80
2023/03/12 07:35:48;;;;;;;7.27;1.93;;;11.60;88.30;;;;;;4920518;29;20205;-80
2023/03/12 07:38:17;;;;;;;7.87;1.90;;;11.70;86.60;;;;;;4927314;29;20199;-81
2023/03/12 07:40:49;;;;;;;3.23;1.50;;;11.80;85.60;;;;;;4938130;29;20208;-82
2023/03/12 07:43:18;;;;;;;2.83;1.50;;;11.80;85.40;;;;;;4935266;29;20222;-80
2023/03/12 07:45:49;;;;;;;3.17;1.43;;;11.90;84.80;;;;;;4934585;29;20212;-80
2023/03/12 07:48:18;;;;;;;3.17;1.40;;;11.90;84.20;;;;;;4926220;29;20207;-78
2023/03/12 07:50:45;;;;;;;6.37;1.90;;;12.00;83.80;;;;;;4918046;29;20215;-79
2023/03/12 07:53:13;;;;;;;4.37;1.93;;;12.00;84.60;;;;;;4921923;29;20213;-80
2023/03/12 07:55:43;;;;;;;3.47;2.30;;;12.10;85.20;;;;;;4913582;29;20236;-80
2023/03/12 07:58:16;;;;;;;10.30;1.93;;;12.20;84.20;;;;;;4940999;29;20225;-80
2023/03/12 08:00:44;;;;;;;9.20;2.67;;;12.20;84.70;;;;;;4939969;29;20229;-81
2023/03/12 08:03:12;;;;;;;11.83;2.67;;;12.30;84.50;;;;;;4909779;29;20206;-82
2023/03/12 08:05:39;;;;;;;5.53;1.43;;;12.30;84.40;;;;;;4932776;29;20207;-80
2023/03/12 08:08:06;;;;;;;8.60;2.40;;;12.40;84.30;;;;;;4926187;29;20217;-80
2023/03/12 08:10:34;;;;;;;6.67;1.93;;;12.50;85.00;;;;;;4922060;29;20215;-81
2023/03/12 08:13:02;;;;;;;5.23;1.70;;;12.60;83.90;;;;;;4924477;29;20217;-82
2023/03/12 08:15:30;;;;;;;7.70;1.80;;;12.70;83.60;;;;;;4934019;29;20566;-80
2023/03/12 08:17:58;;;;;;;9.97;2.50;;;12.80;83.20;;;;;;4937740;29;20218;-80
2023/03/12 08:20:25;;;;;;;10.53;2.00;;;13.00;82.90;;;;;;4934901;29;20223;-81
2023/03/12 08:22:52;;;;;;;5.60;1.70;;;13.10;82.50;;;;;;4910962;29;20214;-81
2023/03/12 08:25:20;;;;;;;6.30;2.60;;;13.20;79.50;;;;;;4911713;29;20235;-82
2023/03/12 08:27:46;;;;;;;5.07;2.00;;;13.30;77.00;;;;;;4945948;29;20214;-80
2023/03/12 08:30:14;;;;;;;6.83;1.97;;;13.30;78.00;;;;;;4936950;29;20632;-81
2023/03/12 08:32:41;;;;;;;4.70;1.47;;;13.30;78.20;;;;;;4932601;29;20209;-79
2023/03/12 08:35:09;;;;;;;3.93;1.73;;;13.30;77.30;;;;;;4941537;29;20206;-81
2023/03/12 08:37:38;;;;;;;6.13;1.53;;;13.40;76.90;;;;;;4914695;29;20213;-80
2023/03/12 08:40:12;;;;;;;6.73;1.60;;;13.40;77.10;;;;;;4941042;29;20679;-81
2023/03/12 08:42:40;;;;;;;5.87;1.70;;;13.50;77.20;;;;;;4927475;29;20644;-79
2023/03/12 08:45:09;;;;;;;5.83;1.40;;;13.60;76.00;;;;;;4937898;29;20205;-79
2023/03/12 08:47:40;;;;;;;6.37;1.83;;;13.60;76.40;;;;;;4938503;29;20211;-79
2023/03/12 08:50:13;;;;;;;5.73;1.70;;;13.70;75.80;;;;;;4947195;29;20221;-78
2023/03/12 08:52:42;;;;;;;6.77;1.80;;;13.80;77.00;;;;;;4932094;29;20211;-81
2023/03/12 08:55:10;;;;;;;6.40;2.00;;;13.90;76.80;;;;;;4936969;29;20269;-79
2023/03/12 08:57:38;;;;;;;8.23;2.17;;;14.00;76.20;;;;;;4932586;29;20619;-79
2023/03/12 09:00:11;;;;;;;6.50;2.00;;;14.10;74.80;;;;;;4922485;29;20280;-81
2023/03/12 09:02:38;;;;;;;8.33;2.07;;;14.20;73.80;;;;;;4936250;29;20202;-79
2023/03/12 09:05:06;;;;;;;2.57;1.40;;;14.20;73.20;;;;;;4930445;29;20716;-78
2023/03/12 09:07:33;;;;;;;6.30;1.93;;;14.30;73.90;;;;;;4932510;29;20207;-79
2023/03/12 09:10:00;;;;;;;3.87;2.00;;;14.40;73.40;;;;;;4935212;29;20198;-77
2023/03/12 09:12:28;;;;;;;4.63;1.87;;;14.40;73.50;;;;;;4932075;29;20222;-79
2023/03/12 09:14:54;;;;;;;4.17;2.00;;;14.50;73.90;;;;;;4939413;29;20238;-79
2023/03/12 09:17:31;;;;;;;3.93;2.13;;;14.60;73.90;;;;;;4941380;29;20295;-79
2023/03/12 09:19:59;;;;;;;6.10;2.00;;;14.70;74.00;;;;;;4921150;29;20214;-79
2023/03/12 09:22:29;;;;;;;5.23;2.10;;;14.90;74.10;;;;;;4940242;29;20262;-80
2023/03/12 09:24:56;;;;;;;8.13;1.90;;;15.10;73.40;;;;;;4926512;29;20226;-79
2023/03/12 09:27:23;;;;;;;10.00;2.27;;;15.20;73.20;;;;;;4938716;29;20625;-81
2023/03/12 09:29:52;;;;;;;9.30;1.93;;;15.40;71.60;;;;;;4935801;29;20206;-79
2023/03/12 09:32:28;;;;;;;4.63;1.97;;;15.40;70.60;;;;;;4914413;29;20210;-77
2023/03/12 09:34:55;;;;;;;7.83;2.40;;;15.50;71.00;;;;;;4938138;29;20198;-78
2023/03/12 09:37:28;;;;;;;7.30;2.40;;;15.60;71.20;;;;;;4918265;29;20230;-78
2023/03/12 09:39:55;;;;;;;4.73;1.90;;;15.70;71.00;;;;;;4931022;28;20218;-81
2023/03/12 09:42:42;;;;;;;6.50;2.00;;;15.90;69.50;;;;;;4939112;29;20202;-78
2023/03/12 09:45:22;;;;;;;5.20;1.93;;;16.10;69.80;;;;;;4946526;29;20582;-79
2023/03/12 09:48:06;;;;;;;9.07;2.67;;;16.40;69.00;;;;;;4932322;29;20664;-78
2023/03/12 09:50:39;;;;;;;4.17;1.70;;;16.50;67.20;;;;;;4931281;29;20287;-78
2023/03/12 09:53:41;;;;;;;7.23;1.80;;;16.60;66.80;;;;;;4941498;29;20211;-78
2023/03/12 09:56:13;;;;;;;9.73;1.80;;;16.60;67.00;;;;;;4941864;29;20298;-80
2023/03/12 09:58:43;;;;;;;3.80;1.70;;;16.80;66.20;;;;;;4924511;29;20213;-78
2023/03/12 10:01:29;;;;;;;3.10;1.60;;;16.80;65.50;;;;;;4936893;29;20921;-80
2023/03/12 10:04:11;;;;;;;6.73;1.77;;;16.90;65.80;;;;;;4938017;29;20207;-79
2023/03/12 10:06:44;;;;;;;11.87;2.43;;;17.00;65.10;;;;;;4946149;29;20310;-78
2023/03/12 10:09:39;;;;;;;7.60;1.97;;;17.10;65.10;;;;;;4929686;29;20202;-80
2023/03/12 10:12:23;;;;;;;4.27;1.63;;;17.10;64.20;;;;;;4916345;29;20296;-80
2023/03/12 10:15:30;;;;;;;11.10;2.03;;;17.10;64.50;;;;;;4947541;29;20230;-80
2023/03/12 10:18:15;;;;;;;9.70;2.07;;;17.20;64.20;;;;;;4938238;29;20737;-80
2023/03/12 10:21:27;;;;;;;4.20;1.83;;;17.20;63.20;;;;;;4939327;29;20226;-76
2023/03/12 10:24:04;;;;;;;8.83;2.07;;;17.20;63.40;;;;;;4913468;29;20213;-77
2023/03/12 10:26:49;;;;;;;10.83;3.60;;;17.30;63.80;;;;;;4938363;29;20242;-79
2023/03/12 10:29:38;;;;;;;11.70;2.27;;;17.30;63.40;;;;;;4932017;29;20671;-77
2023/03/12 10:32:36;;;;;;;7.13;2.77;;;17.20;63.40;;;;;;4930258;29;20209;-79
2023/03/12 10:35:15;;;;;;;9.63;1.97;;;17.20;63.20;;;;;;4928964;29;20255;-78
2023/03/12 10:37:45;;;;;;;12.33;2.80;;;17.30;62.90;;;;;;4929546;29;20221;-79
2023/03/12 10:40:16;;;;;;;11.47;3.07;;;17.30;63.90;;;;;;4910851;29;20221;-79
2023/03/12 10:42:43;;;;;;;7.63;2.23;;;17.40;63.20;;;;;;4925643;29;20199;-78
2023/03/12 10:45:19;;;;;;;10.20;2.50;;;17.50;63.00;;;;;;4932621;29;20256;-77
2023/03/12 10:47:55;;;;;;;6.57;1.97;;;17.60;62.10;;;;;;4937336;29;20228;-82
2023/03/12 10:50:26;;;;;;;6.33;1.90;;;17.70;60.50;;;;;;4932283;29;20216;-83
2023/03/12 10:53:11;;;;;;;8.60;2.10;;;17.70;61.60;;;;;;4920269;29;20242;-77
2023/03/12 10:55:39;;;;;;;9.37;2.73;;;17.70;62.00;;;;;;4931487;29;20301;-78
2023/03/12 10:58:06;;;;;;;8.20;2.13;;;17.70;62.00;;;;;;4932043;29;20302;-79
2023/03/12 11:00:33;;;;;;;9.60;2.30;;;17.80;61.20;;;;;;4939921;29;20216;-78
2023/03/12 11:03:20;;;;;;;7.73;2.27;;;17.90;61.50;;;;;;4931427;29;20203;-78
2023/03/12 11:05:50;;;;;;;7.93;2.57;;;17.90;61.90;;;;;;4931436;29;20615;-79
2023/03/12 11:08:32;;;;;;;5.20;1.90;;;18.00;61.40;;;;;;4937891;29;20605;-80
2023/03/12 11:11:01;;;;;;;7.70;2.17;;;18.10;60.80;;;;;;4929905;29;20238;-79
2023/03/12 11:13:35;;;;;;;9.40;2.30;;;18.10;60.60;;;;;;4938049;29;20206;-78
2023/03/12 11:16:27;;;;;;;8.30;2.77;;;18.10;61.00;;;;;;4929941;29;20220;-80
2023/03/12 11:19:00;;;;;;;5.00;2.23;;;18.20;61.50;;;;;;4920784;29;20222;-79
2023/03/12 11:21:32;;;;;;;4.67;2.03;;;18.30;61.30;;;;;;4935521;29;20298;-79
2023/03/12 11:23:59;;;;;;;6.33;2.07;;;18.40;60.90;;;;;;4921977;29;21517;-78
2023/03/12 11:26:34;;;;;;;2.40;1.90;;;18.40;60.10;;;;;;4932397;29;20237;-80
2023/03/12 11:29:10;;;;;;;7.20;2.13;;;18.40;59.20;;;;;;4930696;29;20220;-77
2023/03/12 11:31:43;;;;;;;7.10;2.37;;;18.40;59.40;;;;;;4935819;29;20630;-79
2023/03/12 11:34:27;;;;;;;6.90;2.53;;;18.50;59.70;;;;;;4925775;29;20214;-80
2023/03/12 11:37:00;;;;;;;10.50;2.63;;;18.50;59.40;;;;;;4940813;29;20299;-77
2023/03/12 11:39:54;;;;;;;4.77;2.33;;;18.60;59.60;;;;;;4931300;29;20699;-78
2023/03/12 11:42:55;;;;;;;4.77;2.23;;;18.70;59.50;;;;;;4929498;29;20198;-78
2023/03/12 11:45:25;;;;;;;10.13;2.30;;;18.70;59.50;;;;;;4937840;29;20819;-77
2023/03/12 11:48:14;;;;;;;13.27;2.47;;;18.80;60.00;;;;;;4944618;29;20245;-78
2023/03/12 11:51:11;;;;;;;13.30;2.50;;;18.90;60.00;;;;;;4930524;29;20207;-78
2023/03/12 11:54:06;;;;;;;4.83;3.00;;;19.10;58.60;;;;;;4897565;29;20285;-79
2023/03/12 11:56:43;;;;;;;7.73;2.40;;;19.10;58.90;;;;;;4931349;29;20205;-77
2023/03/12 11:59:25;;;;;;;9.43;2.70;;;19.00;58.70;;;;;;4944054;29;20213;-78
2023/03/12 12:01:54;;;;;;;3.90;2.63;;;19.00;58.80;;;;;;4938729;29;20303;-78
2023/03/12 12:04:46;;;;;;;9.07;2.60;;;18.90;56.90;;;;;;4936270;29;20206;-77
2023/03/12 12:07:28;;;;;;;6.47;2.33;;;18.80;58.50;;;;;;4938081;29;20205;-78
2023/03/12 12:09:58;;;;;;;11.33;2.93;;;18.80;60.30;;;;;;4936979;29;20198;-82
2023/03/12 12:12:44;;;;;;;9.93;2.53;;;18.90;60.40;;;;;;4929204;29;20221;-81
2023/03/12 12:15:33;;;;;;;4.20;2.10;;;18.90;59.00;;;;;;4933692;29;20206;-80
2023/03/12 12:18:34;;;;;;;8.07;2.53;;;18.90;59.40;;;;;;4937352;29;20287;-79
2023/03/12 12:21:33;;;;;;;5.27;2.90;;;19.00;59.80;;;;;;4928988;29;20254;-79
2023/03/12 12:24:16;;;;;;;5.07;2.57;;;19.00;60.30;;;;;;4935053;29;20221;-78
2023/03/12 12:27:06;;;;;;;8.77;2.70;;;19.00;59.50;;;;;;4921425;29;20281;-79
2023/03/12 12:30:28;;;;;;;7.33;2.47;;;19.00;59.10;;;;;;4922612;29;20268;-78
2023/03/12 12:33:07;;;;;;;8.37;2.87;;;18.90;59.30;;;;;;4877531;29;20654;-79
2023/03/12 12:35:42;;;;;;;9.50;2.47;;;18.90;59.90;;;;;;4908697;29;20659;-81
2023/03/12 12:38:36;;;;;;;9.93;2.73;;;18.90;60.50;;;;;;4915022;29;20565;-79
2023/03/12 12:41:26;;;;;;;7.20;3.07;;;19.00;59.40;;;;;;4934177;29;20227;-82
2023/03/12 12:44:01;;;;;;;9.43;3.10;;;19.00;59.70;;;;;;4921859;29;20648;-79
2023/03/12 12:46:31;;;;;;;11.13;2.87;;;18.90;60.00;;;;;;4933913;29;20541;-79
2023/03/12 12:49:00;;;;;;;7.73;2.70;;;18.90;59.50;;;;;;4933203;29;20206;-79
2023/03/12 12:51:35;;;;;;;10.03;3.00;;;18.80;59.80;;;;;;4929903;29;20215;-78
2023/03/12 12:54:21;;;;;;;10.67;3.27;;;18.70;60.00;;;;;;4920514;29;20273;-79
2023/03/12 12:57:09;;;;;;;8.43;2.67;;;18.70;60.20;;;;;;4917521;29;20285;-78
2023/03/12 12:59:36;;;;;;;8.97;2.70;;;18.80;60.00;;;;;;4932907;29;20218;-82
2023/03/12 13:02:14;;;;;;;7.00;2.97;;;18.80;60.30;;;;;;4932957;29;20235;-81
2023/03/12 13:04:43;;;;;;;6.17;2.70;;;18.90;60.20;;;;;;4931623;29;20207;-78
2023/03/12 13:07:10;;;;;;;5.53;2.30;;;18.90;59.90;;;;;;4929630;29;20849;-79
2023/03/12 13:09:42;;;;;;;6.23;2.33;;;18.90;59.70;;;;;;4908487;29;20215;-79